Time;durP1;ratioP1;P1;durP2;ratioP2;P2;SDS_P1;SDS_P2;PMS_P1;PMS_P2;Temp;Humidity;BMP_temperature;BMP_pressure;BME280_temperature;BME280_humidity;BME280_pressure;Samples;Min_cycle;Max_cycle;Signal;HPM_P1;HPM_P2
2022/11/27 00:01:09;;;;;;;5.78;2.50;;;;;;;6.31;49.18;102261.75;5007636;28;19988;-80
2022/11/27 00:03:37;;;;;;;4.28;2.50;;;;;;;6.33;49.21;102258.94;5005645;28;20041;-80
2022/11/27 00:06:08;;;;;;;5.25;2.60;;;;;;;6.33;49.17;102258.94;5018321;28;20455;-81
2022/11/27 00:08:36;;;;;;;7.10;2.80;;;;;;;6.32;49.12;102257.19;5018828;28;20096;-81
2022/11/27 00:11:06;;;;;;;5.38;3.10;;;;;;;6.33;49.46;102257.13;5008778;28;20051;-81
2022/11/27 00:13:35;;;;;;;5.70;2.60;;;;;;;6.32;49.32;102243.59;5014713;28;20100;-81
2022/11/27 00:16:04;;;;;;;5.32;2.50;;;;;;;6.33;49.57;102245.34;4987341;28;20058;-80
2022/11/27 00:18:32;;;;;;;8.18;3.22;;;;;;;6.33;49.26;102248.97;5020828;28;20046;-80
2022/11/27 00:21:03;;;;;;;6.47;2.78;;;;;;;6.33;49.16;102245.34;5012261;28;20084;-80
2022/11/27 00:23:33;;;;;;;5.65;2.63;;;;;;;6.33;49.01;102248.06;5002464;28;20068;-82
2022/11/27 00:26:01;;;;;;;6.38;2.50;;;;;;;6.32;49.43;102243.59;5009825;28;20052;-81
2022/11/27 00:28:30;;;;;;;6.45;2.70;;;;;;;6.32;49.31;102235.44;5013401;28;20477;-84
2022/11/27 00:30:59;;;;;;;5.40;2.45;;;;;;;6.32;49.27;102240.88;5012614;28;20049;-84
2022/11/27 00:33:27;;;;;;;5.28;2.50;;;;;;;6.30;49.02;102234.63;5008270;28;20548;-81
2022/11/27 00:35:55;;;;;;;4.70;2.30;;;;;;;6.31;49.30;102233.66;5018146;28;20056;-82
2022/11/27 00:38:23;;;;;;;5.68;2.67;;;;;;;6.29;49.04;102232.84;5010137;28;20532;-81
2022/11/27 00:40:52;;;;;;;4.97;2.13;;;;;;;6.31;49.25;102228.22;5004760;28;20054;-82
2022/11/27 00:43:20;;;;;;;4.97;2.10;;;;;;;6.30;49.25;102229.19;5008694;28;20065;-82
2022/11/27 00:45:49;;;;;;;4.78;2.17;;;;;;;6.29;49.04;102227.41;5014492;28;20037;-83
2022/11/27 00:48:17;;;;;;;4.30;2.13;;;;;;;6.28;49.10;102229.25;5013077;28;20034;-82
2022/11/27 00:50:45;;;;;;;6.05;2.40;;;;;;;6.29;49.25;102227.41;5011386;28;20552;-82
2022/11/27 00:53:12;;;;;;;4.10;2.35;;;;;;;6.28;49.34;102228.41;5018729;28;20076;-83
2022/11/27 00:55:40;;;;;;;4.78;2.60;;;;;;;6.28;49.13;102222.97;5015374;28;20170;-83
2022/11/27 00:58:10;;;;;;;6.07;2.53;;;;;;;6.29;49.14;102228.28;5014630;28;20052;-83
2022/11/27 01:00:38;;;;;;;5.18;2.20;;;;;;;6.29;49.63;102227.41;5012743;28;20042;-82
2022/11/27 01:03:05;;;;;;;6.35;2.45;;;;;;;6.27;49.29;102211.19;5014831;28;20049;-83
2022/11/27 01:05:36;;;;;;;3.83;2.30;;;;;;;6.29;49.35;102206.53;5012081;28;20073;-82
2022/11/27 01:08:04;;;;;;;5.43;2.38;;;;;;;6.28;49.22;102214.78;5014034;28;20128;-83
2022/11/27 01:10:32;;;;;;;5.05;2.08;;;;;;;6.27;49.06;102213.91;5004606;28;20041;-83
2022/11/27 01:13:00;;;;;;;4.57;1.98;;;;;;;6.28;49.00;102222.97;5003795;28;20049;-83
2022/11/27 01:15:29;;;;;;;5.40;2.33;;;;;;;6.27;49.37;102223.91;5013561;28;21679;-83
2022/11/27 01:17:57;;;;;;;5.55;2.53;;;;;;;6.27;49.37;102229.34;5010744;28;20068;-82
2022/11/27 01:20:25;;;;;;;5.30;2.50;;;;;;;6.25;49.27;102232.13;5014441;28;20042;-83
2022/11/27 01:22:52;;;;;;;6.05;2.58;;;;;;;6.25;49.36;102218.53;5012402;28;20045;-83
2022/11/27 01:25:20;;;;;;;5.30;2.20;;;;;;;6.24;49.20;102227.66;5010286;28;20042;-84
2022/11/27 01:27:53;;;;;;;;;;;;;;;6.00;49.48;102213.38;5028449;28;20436;-84
2022/11/27 01:30:21;;;;;;;3.88;2.05;;;;;;;6.18;49.47;102218.91;5013510;28;19925;-81
2022/11/27 01:32:50;;;;;;;6.03;2.45;;;;;;;6.22;49.18;102218.66;5016612;28;20060;-83
2022/11/27 01:35:18;;;;;;;5.95;2.20;;;;;;;6.21;48.86;102206.03;5011852;28;20037;-83
2022/11/27 01:37:46;;;;;;;6.15;1.83;;;;;;;6.21;48.97;102207.88;5013768;28;20136;-83
2022/11/27 01:40:14;;;;;;;6.07;2.50;;;;;;;6.19;49.20;102215.25;5010246;28;20037;-83
2022/11/27 01:42:42;;;;;;;5.68;2.08;;;;;;;6.20;49.01;102209.69;4997651;28;20234;-83
2022/11/27 01:45:13;;;;;;;7.55;2.35;;;;;;;6.20;49.18;102211.56;5006426;28;20046;-81
2022/11/27 01:47:46;;;;;;;4.03;1.80;;;;;;;6.20;49.04;102198.81;5008675;28;20065;-82
2022/11/27 01:50:21;;;;;;;5.47;2.28;;;;;;;6.20;49.21;102192.53;5004832;28;20132;-82
2022/11/27 01:52:52;;;;;;;4.90;2.00;;;;;;;6.18;49.06;102198.03;5010982;28;20050;-83
2022/11/27 01:55:28;;;;;;;5.85;2.05;;;;;;;6.21;48.94;102191.56;5025337;28;20038;-82
2022/11/27 01:58:00;;;;;;;4.65;2.17;;;;;;;6.19;48.89;102188.06;5009739;28;20049;-83
2022/11/27 02:00:28;;;;;;;4.90;2.13;;;;;;;6.16;49.19;102183.63;5007873;28;20050;-83
2022/11/27 02:02:56;;;;;;;5.10;2.50;;;;;;;6.16;49.22;102172.75;5009193;28;20493;-83
2022/11/27 02:05:28;;;;;;;5.20;2.10;;;;;;;6.19;48.91;102185.34;5018453;28;20470;-84
2022/11/27 02:07:58;;;;;;;6.57;2.28;;;;;;;6.16;48.89;102178.19;5020579;28;20137;-83
2022/11/27 02:10:36;;;;;;;6.88;2.30;;;;;;;6.16;48.90;102183.63;5009016;28;20335;-83
2022/11/27 02:13:09;;;;;;;4.18;2.20;;;;;;;6.16;48.78;102183.63;5008728;28;20113;-81
2022/11/27 02:15:44;;;;;;;4.07;1.98;;;;;;;6.16;48.91;102182.75;5008319;28;20044;-82
2022/11/27 02:18:19;;;;;;;6.72;2.10;;;;;;;6.15;48.75;102184.59;5011303;28;20057;-82
2022/11/27 02:20:54;;;;;;;4.40;2.08;;;;;;;6.17;48.89;102179.09;5009500;28;20052;-82
2022/11/27 02:23:40;;;;;;;5.40;1.92;;;;;;;6.18;48.78;102180.84;5010458;28;20061;-83
2022/11/27 02:26:22;;;;;;;4.13;1.80;;;;;;;6.17;48.84;102169.09;5010704;28;20046;-82
2022/11/27 02:29:06;;;;;;;5.00;2.47;;;;;;;6.13;48.85;102177.44;5013206;28;20049;-84
2022/11/27 02:31:40;;;;;;;6.47;2.30;;;;;;;6.15;48.64;102176.44;5006484;28;20044;-82
2022/11/27 02:34:15;;;;;;;4.80;2.30;;;;;;;6.15;48.71;102173.72;5005581;28;20050;-83
2022/11/27 02:36:53;;;;;;;4.80;2.70;;;;;;;6.14;48.81;102173.78;5012045;28;20042;-83
2022/11/27 02:39:27;;;;;;;6.60;2.33;;;;;;;6.13;48.79;102169.28;5004137;28;20129;-83
2022/11/27 02:42:00;;;;;;;4.88;2.30;;;;;;;6.11;48.74;102166.69;5000285;28;20047;-83
2022/11/27 02:44:35;;;;;;;6.90;2.97;;;;;;;6.11;48.69;102152.22;5013864;28;20412;-83
2022/11/27 02:47:05;;;;;;;5.55;2.60;;;;;;;6.10;48.75;102136.84;5009060;28;20492;-82
2022/11/27 02:49:35;;;;;;;6.35;3.03;;;;;;;6.09;48.68;102144.13;5008624;28;20096;-82
2022/11/27 02:52:07;;;;;;;6.40;2.70;;;;;;;6.08;48.68;102134.19;5010192;28;20156;-83
2022/11/27 02:54:36;;;;;;;6.40;2.78;;;;;;;6.04;48.76;102121.69;5009425;28;20038;-83
2022/11/27 02:57:05;;;;;;;6.97;3.05;;;;;;;6.05;48.80;102129.78;5008971;28;20049;-83
2022/11/27 02:59:37;;;;;;;6.20;2.70;;;;;;;6.05;48.66;102118.03;5010482;28;20042;-82
2022/11/27 03:02:11;;;;;;;5.47;2.97;;;;;;;6.04;48.69;102127.13;5018883;28;20046;-82
2022/11/27 03:04:44;;;;;;;7.03;2.90;;;;;;;6.02;48.56;102135.38;5015110;28;20072;-84
2022/11/27 03:07:14;;;;;;;;;;;;;;;5.77;49.17;102125.75;5017914;28;20109;-82
2022/11/27 03:09:46;;;;;;;6.55;3.08;;;;;;;5.95;48.75;102120.31;5012694;28;19925;-84
2022/11/27 03:12:16;;;;;;;6.97;3.13;;;;;;;5.96;48.71;102111.22;5011784;28;20489;-84
2022/11/27 03:14:47;;;;;;;7.57;3.08;;;;;;;5.98;48.52;102102.97;5010212;28;20038;-83
2022/11/27 03:17:27;;;;;;;8.65;4.35;;;;;;;5.97;48.88;102099.38;5007706;28;20070;-84
2022/11/27 03:20:00;;;;;;;8.32;3.67;;;;;;;5.94;48.61;102085.09;5009411;28;20073;-84
2022/11/27 03:22:30;;;;;;;7.35;3.67;;;;;;;5.91;48.51;102087.94;5005365;28;20050;-83
2022/11/27 03:24:59;;;;;;;7.82;3.88;;;;;;;5.90;48.61;102083.47;5008468;28;20038;-84
2022/11/27 03:27:32;;;;;;;8.15;3.85;;;;;;;5.89;48.63;102090.72;5019239;28;20096;-83
2022/11/27 03:30:05;;;;;;;8.07;4.10;;;;;;;5.89;48.63;102098.00;5003861;28;20069;-83
2022/11/27 03:32:33;;;;;;;6.55;3.90;;;;;;;5.86;48.64;102101.75;5004341;28;20518;-82
2022/11/27 03:35:02;;;;;;;8.57;4.53;;;;;;;5.85;48.49;102102.72;5008255;28;20046;-83
2022/11/27 03:37:30;;;;;;;9.98;5.20;;;;;;;5.83;48.76;102103.72;5006720;28;20520;-83
2022/11/27 03:39:57;;;;;;;9.45;4.55;;;;;;;5.84;48.61;102095.50;5007442;28;20045;-83
2022/11/27 03:42:30;;;;;;;7.93;4.05;;;;;;;5.85;48.84;102107.25;5006734;28;20093;-83
2022/11/27 03:45:09;;;;;;;7.97;3.88;;;;;;;5.83;48.49;102101.00;5007135;28;20435;-83
2022/11/27 03:47:48;;;;;;;9.20;3.90;;;;;;;5.83;48.19;102092.88;5004472;28;20069;-83
2022/11/27 03:50:28;;;;;;;8.30;4.53;;;;;;;5.82;48.50;102101.97;5005544;28;20060;-82
2022/11/27 03:53:08;;;;;;;9.70;4.80;;;;;;;5.83;48.57;102098.28;5009397;28;20219;-80
2022/11/27 03:55:46;;;;;;;7.47;4.22;;;;;;;5.80;48.45;102096.59;5002288;28;20097;-80
2022/11/27 03:58:20;;;;;;;9.50;4.20;;;;;;;5.81;48.53;102100.19;5028050;23;20039;-70
2022/11/27 04:00:50;;;;;;;10.55;5.20;;;;;;;5.80;48.51;102099.31;4987704;28;20514;-70
2022/11/27 04:03:24;;;;;;;9.02;5.10;;;;;;;5.81;48.63;102092.03;5008612;28;20038;-69
2022/11/27 04:05:52;;;;;;;8.80;4.85;;;;;;;5.79;48.61;102086.69;5008748;28;20042;-70
2022/11/27 04:08:20;;;;;;;10.50;5.03;;;;;;;5.79;48.75;102083.13;5008892;28;20042;-70
2022/11/27 04:10:48;;;;;;;9.27;5.00;;;;;;;5.77;48.82;102071.44;4989757;28;20307;-70
2022/11/27 04:13:17;;;;;;;10.75;5.05;;;;;;;5.79;48.76;102077.69;4987481;28;20073;-70
2022/11/27 04:15:44;;;;;;;12.10;5.53;;;;;;;5.78;48.74;102071.38;4969806;28;20039;-70
2022/11/27 04:18:14;;;;;;;10.48;4.70;;;;;;;5.79;48.49;102059.53;4986334;28;20050;-70
2022/11/27 04:20:42;;;;;;;10.95;5.43;;;;;;;5.77;48.83;102045.16;4974103;28;20415;-71
2022/11/27 04:23:10;;;;;;;9.02;5.03;;;;;;;5.77;48.63;102045.16;4987830;28;20092;-70
2022/11/27 04:25:38;;;;;;;11.57;5.40;;;;;;;5.78;48.82;102044.19;4987774;28;20856;-70
2022/11/27 04:28:05;;;;;;;10.23;4.78;;;;;;;5.79;48.45;102045.09;4988397;28;20447;-70
2022/11/27 04:30:33;;;;;;;10.70;4.93;;;;;;;5.79;48.69;102050.53;4999760;28;20050;-69
2022/11/27 04:33:01;;;;;;;9.82;4.90;;;;;;;5.78;48.58;102036.06;4990073;28;20075;-69
2022/11/27 04:35:31;;;;;;;9.60;5.03;;;;;;;5.81;48.47;102032.28;5006597;28;20085;-70
2022/11/27 04:37:58;;;;;;;8.25;4.63;;;;;;;5.79;48.73;102023.34;5008117;28;20108;-70
2022/11/27 04:40:26;;;;;;;9.73;5.30;;;;;;;5.81;48.68;102024.13;5006892;28;20079;-69
2022/11/27 04:42:54;;;;;;;10.35;5.07;;;;;;;5.80;48.74;102028.69;5007512;28;20104;-70
2022/11/27 04:45:22;;;;;;;10.80;4.97;;;;;;;5.76;48.63;102018.94;4994914;28;20129;-69
2022/11/27 04:47:50;;;;;;;8.93;4.70;;;;;;;5.78;48.46;102016.16;4988541;28;20145;-69
2022/11/27 04:50:18;;;;;;;8.45;4.78;;;;;;;5.80;48.85;102025.09;4987793;28;20054;-70
2022/11/27 04:52:47;;;;;;;9.77;4.93;;;;;;;5.80;48.65;102033.22;4992209;28;20054;-70
2022/11/27 04:55:15;;;;;;;9.93;4.82;;;;;;;5.80;48.66;102023.25;4973399;28;20046;-70
2022/11/27 04:57:42;;;;;;;9.80;4.88;;;;;;;5.80;48.97;102025.97;4991974;28;20101;-71
2022/11/27 05:00:11;;;;;;;8.18;4.75;;;;;;;5.83;48.76;102016.78;4990054;28;20050;-69
2022/11/27 05:02:39;;;;;;;10.68;4.88;;;;;;;5.82;48.81;102021.34;4991425;28;20651;-71
2022/11/27 05:05:08;;;;;;;7.00;3.97;;;;;;;5.84;48.63;102013.13;4991091;28;20133;-71
2022/11/27 05:07:36;;;;;;;9.10;5.40;;;;;;;5.83;49.02;102014.97;4991453;28;20450;-71
2022/11/27 05:10:07;;;;;;;8.73;4.20;;;;;;;5.86;48.58;102013.94;4989413;28;20054;-70
2022/11/27 05:12:34;;;;;;;9.65;5.03;;;;;;;5.84;48.66;102010.41;4991775;28;20042;-70
2022/11/27 05:15:02;;;;;;;8.98;4.32;;;;;;;5.85;48.63;101995.88;4972993;28;20058;-70
2022/11/27 05:17:31;;;;;;;7.60;4.75;;;;;;;5.86;48.67;102003.06;4989881;28;20150;-70
2022/11/27 05:19:59;;;;;;;8.40;4.68;;;;;;;5.86;48.80;102008.50;4990183;28;20054;-70
2022/11/27 05:22:27;;;;;;;8.35;4.50;;;;;;;5.88;48.66;101992.97;4991657;28;20042;-69
2022/11/27 05:24:55;;;;;;;8.40;4.55;;;;;;;5.88;48.55;101996.59;4989333;28;20049;-70
2022/11/27 05:27:24;;;;;;;8.63;4.43;;;;;;;5.90;48.46;101993.78;4990127;28;20042;-70
2022/11/27 05:29:52;;;;;;;7.68;4.35;;;;;;;5.90;48.57;101996.50;4990446;28;20053;-70
2022/11/27 05:32:20;;;;;;;7.82;4.70;;;;;;;5.90;48.57;101994.69;4991203;28;20054;-70
2022/11/27 05:34:48;;;;;;;7.10;3.92;;;;;;;5.89;48.75;101998.34;4988437;28;20100;-70
2022/11/27 05:37:16;;;;;;;9.38;4.50;;;;;;;5.89;48.61;101982.03;4991404;28;20097;-70
2022/11/27 05:39:46;;;;;;;8.98;4.45;;;;;;;5.89;48.34;101990.19;4990229;28;20057;-70
2022/11/27 05:42:14;;;;;;;11.55;4.13;;;;;;;5.89;48.57;101986.59;4991238;28;20097;-69
2022/11/27 05:44:43;;;;;;;7.38;4.45;;;;;;;5.89;48.61;101981.16;4969430;28;20063;-69
2022/11/27 05:47:11;;;;;;;8.13;4.10;;;;;;;5.88;48.39;101974.84;4971266;28;20468;-70
2022/11/27 05:49:39;;;;;;;8.05;4.43;;;;;;;5.89;48.59;101965.75;4983578;28;20053;-70
2022/11/27 05:52:07;;;;;;;7.78;4.28;;;;;;;5.89;48.65;101964.88;4990272;28;20046;-70
2022/11/27 05:54:35;;;;;;;7.85;3.85;;;;;;;5.89;48.26;101956.72;4990095;28;20057;-70
2022/11/27 05:57:02;;;;;;;7.70;3.90;;;;;;;5.89;48.24;101954.00;4990739;28;20093;-69
2022/11/27 05:59:30;;;;;;;7.80;4.50;;;;;;;5.86;48.51;101956.88;4990019;28;20424;-70
2022/11/27 06:01:59;;;;;;;7.63;4.35;;;;;;;5.86;48.50;101948.75;4988140;28;20057;-70
2022/11/27 06:04:27;;;;;;;7.28;4.18;;;;;;;5.85;48.50;101950.56;4988375;28;20449;-69
2022/11/27 06:06:55;;;;;;;7.32;4.18;;;;;;;5.86;48.66;101946.91;4990506;28;20058;-70
2022/11/27 06:09:23;;;;;;;7.93;3.80;;;;;;;5.85;48.47;101942.41;4989372;28;20054;-69
2022/11/27 06:11:51;;;;;;;9.00;4.45;;;;;;;5.84;48.25;101942.50;4990144;28;20503;-69
2022/11/27 06:14:19;;;;;;;8.48;4.10;;;;;;;5.84;48.46;101932.50;4988912;28;20575;-70
2022/11/27 06:16:46;;;;;;;8.25;4.00;;;;;;;5.84;48.41;101943.38;4990722;28;20411;-69
2022/11/27 06:19:16;;;;;;;8.30;4.00;;;;;;;5.86;48.29;101943.31;4987953;28;20073;-70
2022/11/27 06:21:45;;;;;;;6.60;3.75;;;;;;;5.85;48.26;101946.97;4990809;28;20046;-70
2022/11/27 06:24:13;;;;;;;6.90;4.03;;;;;;;5.84;48.27;101937.06;4989548;28;20057;-70
2022/11/27 06:26:40;;;;;;;7.72;3.97;;;;;;;5.84;48.49;101927.06;4990006;28;20092;-70
2022/11/27 06:29:09;;;;;;;8.02;3.95;;;;;;;5.84;48.51;101921.63;4988841;28;20050;-70
2022/11/27 06:31:37;;;;;;;6.63;3.72;;;;;;;5.84;48.64;101918.03;4989799;28;20054;-71
2022/11/27 06:34:05;;;;;;;8.20;3.97;;;;;;;5.85;48.54;101920.69;4989225;28;20042;-71
2022/11/27 06:36:37;;;;;;;6.80;4.03;;;;;;;5.87;48.64;101924.19;4990027;28;20050;-71
2022/11/27 06:39:07;;;;;;;7.15;4.03;;;;;;;5.86;48.53;101927.00;4989108;28;20046;-71
2022/11/27 06:41:34;;;;;;;8.68;4.15;;;;;;;5.86;48.37;101927.88;4972369;28;20043;-70
2022/11/27 06:44:03;;;;;;;6.07;3.58;;;;;;;5.88;48.77;101919.63;4968045;28;20050;-70
2022/11/27 06:46:31;;;;;;;7.10;3.75;;;;;;;5.88;48.63;101909.66;4967192;28;20438;-71
2022/11/27 06:48:59;;;;;;;6.97;3.63;;;;;;;5.88;48.83;101893.34;4988610;28;20043;-71
2022/11/27 06:51:29;;;;;;;8.00;3.95;;;;;;;5.91;48.77;101897.75;4989631;28;20411;-70
2022/11/27 06:53:59;;;;;;;7.40;3.58;;;;;;;5.92;48.43;101891.34;4988584;28;20058;-70
2022/11/27 06:56:30;;;;;;;6.47;3.35;;;;;;;5.92;48.70;101891.34;4989824;28;20121;-71
2022/11/27 06:58:59;;;;;;;8.10;3.83;;;;;;;5.93;48.74;101898.56;4988633;28;20105;-71
2022/11/27 07:01:29;;;;;;;7.72;3.55;;;;;;;5.94;48.77;101894.88;4994330;28;20069;-71
2022/11/27 07:03:58;;;;;;;7.60;3.70;;;;;;;5.92;48.52;101889.53;5007737;28;20066;-69
2022/11/27 07:06:26;;;;;;;7.32;4.35;;;;;;;5.90;48.60;101891.44;5008900;28;20499;-70
2022/11/27 07:08:55;;;;;;;8.32;4.13;;;;;;;5.92;48.48;101881.38;4981516;28;20475;-71
2022/11/27 07:11:27;;;;;;;6.82;3.65;;;;;;;5.93;48.42;101874.97;5001472;28;20052;-70
2022/11/27 07:13:56;;;;;;;8.15;4.35;;;;;;;5.93;48.28;101868.66;4989255;28;20414;-70
2022/11/27 07:16:25;;;;;;;6.40;4.15;;;;;;;5.91;48.65;101868.75;4988054;28;20113;-71
2022/11/27 07:18:55;;;;;;;6.72;3.95;;;;;;;5.92;48.74;101858.75;4995824;28;20110;-69
2022/11/27 07:21:23;;;;;;;7.57;3.85;;;;;;;5.90;48.63;101864.25;4989633;28;20104;-70
2022/11/27 07:23:51;;;;;;;6.97;3.67;;;;;;;5.89;48.80;101854.34;4970545;28;20503;-71
2022/11/27 07:26:21;;;;;;;6.20;4.03;;;;;;;5.90;48.45;101866.09;4992494;28;20046;-70
2022/11/27 07:28:50;;;;;;;7.93;3.80;;;;;;;5.90;48.64;101852.50;4993306;28;20458;-70
2022/11/27 07:31:20;;;;;;;5.22;3.33;;;;;;;5.90;48.80;101850.69;4992910;28;20049;-70
2022/11/27 07:33:51;;;;;;;7.72;4.15;;;;;;;5.91;48.93;101848.84;4993362;28;20042;-70
2022/11/27 07:36:21;;;;;;;7.35;3.72;;;;;;;5.91;48.94;101857.88;4968824;28;20050;-71
2022/11/27 07:38:49;;;;;;;8.50;4.55;;;;;;;5.90;49.12;101849.81;4999197;28;20040;-70
2022/11/27 07:41:17;;;;;;;10.90;4.82;;;;;;;5.91;48.67;101844.28;5008636;28;20495;-71
2022/11/27 07:43:46;;;;;;;6.63;3.83;;;;;;;5.92;48.57;101846.06;4990524;28;20034;-70
2022/11/27 07:46:18;;;;;;;7.53;3.83;;;;;;;5.94;49.02;101845.97;4987262;28;20050;-71
2022/11/27 07:48:46;;;;;;;6.22;3.67;;;;;;;5.94;48.99;101841.44;4987479;28;20046;-70
2022/11/27 07:51:17;;;;;;;6.07;3.42;;;;;;;5.95;48.82;101835.00;4991773;28;20089;-70
2022/11/27 07:53:45;;;;;;;7.60;4.05;;;;;;;5.94;48.95;101836.00;4982328;28;20066;-70
2022/11/27 07:56:15;;;;;;;6.05;3.65;;;;;;;5.96;49.12;101827.72;4989837;28;20046;-69
2022/11/27 07:58:43;;;;;;;6.35;3.92;;;;;;;5.96;48.91;101825.91;4994786;28;20415;-69
2022/11/27 08:01:13;;;;;;;7.47;4.00;;;;;;;5.98;49.12;101832.13;4989217;28;20097;-69
2022/11/27 08:03:44;;;;;;;8.13;3.80;;;;;;;5.99;48.65;101822.16;4987720;28;20038;-71
2022/11/27 08:06:20;;;;;;;6.15;3.40;;;;;;;6.02;49.08;101833.75;4988539;28;20046;-71
2022/11/27 08:08:48;;;;;;;7.20;3.50;;;;;;;6.00;49.02;101832.94;4987469;28;20495;-70
2022/11/27 08:11:18;;;;;;;6.50;3.20;;;;;;;6.04;49.03;101836.34;4987448;28;20042;-71
2022/11/27 08:13:45;;;;;;;6.53;3.42;;;;;;;6.04;48.99;101820.03;4975198;28;20043;-70
2022/11/27 08:16:13;;;;;;;7.20;3.80;;;;;;;6.03;49.01;101819.19;4996779;28;20399;-72
2022/11/27 08:18:43;;;;;;;6.25;3.42;;;;;;;6.06;49.00;101800.00;4986720;28;20035;-72
2022/11/27 08:21:11;;;;;;;8.13;3.40;;;;;;;6.06;49.28;101805.44;4988470;28;20054;-70
2022/11/27 08:23:38;;;;;;;6.95;3.28;;;;;;;6.09;49.11;101806.22;4993794;28;20098;-71
2022/11/27 08:26:07;;;;;;;6.57;3.42;;;;;;;6.10;49.34;101811.59;5010485;28;20053;-71
2022/11/27 08:28:35;;;;;;;6.45;3.42;;;;;;;6.12;49.22;101816.94;5001693;28;20043;-70
2022/11/27 08:31:05;;;;;;;5.85;3.33;;;;;;;6.15;49.38;101831.22;4990991;28;20046;-70
2022/11/27 08:33:34;;;;;;;5.03;3.33;;;;;;;6.17;49.38;101839.31;4992241;28;20046;-70
2022/11/27 08:36:04;;;;;;;6.10;3.65;;;;;;;6.19;49.22;101832.84;4990788;28;20046;-70
2022/11/27 08:38:36;;;;;;;5.32;3.28;;;;;;;6.20;49.11;101826.41;4990971;28;20061;-70
2022/11/27 08:41:06;;;;;;;7.57;3.47;;;;;;;6.23;49.30;101828.09;5002789;28;20159;-71
2022/11/27 08:43:34;;;;;;;6.82;3.25;;;;;;;6.24;49.20;101828.03;4991362;28;20042;-70
2022/11/27 08:46:03;;;;;;;5.70;3.10;;;;;;;6.26;49.12;101815.25;4973991;28;20046;-70
2022/11/27 08:48:31;;;;;;;7.13;3.40;;;;;;;6.27;49.34;101821.56;4992368;28;20049;-70
2022/11/27 08:50:59;;;;;;;5.78;3.35;;;;;;;6.29;49.16;101801.44;4990878;28;20046;-70
2022/11/27 08:53:28;;;;;;;5.60;3.17;;;;;;;6.31;49.25;101804.09;4989743;28;20049;-70
2022/11/27 08:56:04;;;;;;;5.47;3.20;;;;;;;6.32;49.57;101804.03;4990868;28;20046;-70
2022/11/27 08:58:32;;;;;;;6.47;3.63;;;;;;;6.34;49.24;101793.06;4991989;28;20516;-70
2022/11/27 09:01:07;;;;;;;6.55;3.42;;;;;;;6.37;48.83;101796.47;4989282;28;20570;-70
2022/11/27 09:03:35;;;;;;;6.00;3.40;;;;;;;6.36;49.21;101794.75;4970922;28;20528;-70
2022/11/27 09:06:06;;;;;;;5.38;3.13;;;;;;;6.41;49.26;101802.63;4982347;28;20050;-69
2022/11/27 09:08:36;;;;;;;7.38;3.55;;;;;;;6.43;49.00;101792.56;4989967;28;20057;-70
2022/11/27 09:11:04;;;;;;;5.90;3.22;;;;;;;6.43;49.35;101789.84;4990821;28;20061;-70
2022/11/27 09:13:35;;;;;;;6.28;3.05;;;;;;;6.45;49.08;101790.59;4973822;28;20074;-69
2022/11/27 09:16:04;;;;;;;6.22;3.53;;;;;;;6.45;48.98;101786.06;4961758;28;20069;-69
2022/11/27 09:18:32;;;;;;;6.80;4.13;;;;;;;6.45;49.38;101774.28;4991667;28;20120;-68
2022/11/27 09:21:01;;;;;;;7.30;4.00;;;;;;;6.49;49.17;101777.72;4971451;28;20464;-68
2022/11/27 09:23:29;;;;;;;5.97;3.83;;;;;;;6.49;49.31;101770.47;4992626;28;20096;-70
2022/11/27 09:26:00;;;;;;;5.05;3.45;;;;;;;6.51;48.94;101775.81;4994930;28;20376;-70
2022/11/27 09:28:28;;;;;;;5.93;3.38;;;;;;;6.53;49.11;101779.34;4991067;28;20065;-70
2022/11/27 09:31:00;;;;;;;6.55;3.42;;;;;;;6.54;49.30;101768.34;4990299;28;20452;-69
2022/11/27 09:33:29;;;;;;;5.65;3.60;;;;;;;6.55;49.25;101774.66;4978158;28;20046;-69
2022/11/27 09:35:57;;;;;;;8.13;3.90;;;;;;;6.56;49.24;101760.97;4990174;28;20404;-70
2022/11/27 09:38:25;;;;;;;5.82;3.38;;;;;;;6.58;49.00;101755.47;4990752;28;20042;-69
2022/11/27 09:41:00;;;;;;;5.78;3.40;;;;;;;6.61;48.89;101750.72;4972715;28;20046;-69
2022/11/27 09:43:35;;;;;;;7.35;3.55;;;;;;;6.64;48.90;101741.50;4991262;28;20850;-70
2022/11/27 09:46:07;;;;;;;6.00;3.25;;;;;;;6.67;49.15;101752.22;4990602;28;20545;-69
2022/11/27 09:48:39;;;;;;;6.13;3.60;;;;;;;6.66;49.13;101745.91;4990861;28;20046;-69
2022/11/27 09:51:15;;;;;;;5.70;3.47;;;;;;;6.72;48.94;101750.97;5010332;28;20050;-70
2022/11/27 09:53:47;;;;;;;5.50;3.17;;;;;;;6.76;48.88;101755.34;5009927;28;20041;-69
2022/11/27 09:56:18;;;;;;;5.30;3.47;;;;;;;6.76;49.06;101747.16;5010355;28;20088;-71
2022/11/27 09:58:55;;;;;;;6.93;3.30;;;;;;;6.82;48.70;101751.38;5009189;28;20066;-73
2022/11/27 10:01:27;;;;;;;7.03;3.55;;;;;;;6.82;48.97;101744.09;5019763;28;20109;-73
2022/11/27 10:04:10;;;;;;;6.70;3.67;;;;;;;6.84;48.61;101751.28;5006162;28;20034;-73
2022/11/27 10:06:54;;;;;;;5.97;3.40;;;;;;;6.87;48.57;101732.03;5010726;28;20731;-74
2022/11/27 10:09:31;;;;;;;5.30;3.28;;;;;;;6.90;48.38;101735.47;5012331;28;20064;-74
2022/11/27 10:12:09;;;;;;;6.63;3.13;;;;;;;6.94;48.29;101744.34;5006866;28;20068;-74
2022/11/27 10:14:53;;;;;;;5.75;3.28;;;;;;;6.95;48.21;101738.78;4988266;28;20492;-74
2022/11/27 10:17:29;;;;;;;6.70;3.60;;;;;;;6.96;48.59;101745.13;4999642;28;20044;-74
2022/11/27 10:20:05;;;;;;;6.25;3.55;;;;;;;6.97;48.38;101739.59;4976861;28;20043;-74
2022/11/27 10:22:43;;;;;;;6.80;4.47;;;;;;;6.99;48.34;101734.06;4991818;28;20129;-74
2022/11/27 10:25:16;;;;;;;8.23;4.43;;;;;;;7.00;48.46;101730.38;4999394;28;20561;-73
2022/11/27 10:27:57;;;;;;;8.02;4.20;;;;;;;7.02;48.47;101731.16;4988489;28;20117;-74
2022/11/27 10:30:29;;;;;;;7.15;4.10;;;;;;;7.04;48.37;101740.97;4988711;28;20162;-74
2022/11/27 10:33:00;;;;;;;6.28;4.15;;;;;;;7.06;48.78;101730.00;4990757;28;20054;-74
2022/11/27 10:35:30;;;;;;;6.60;3.70;;;;;;;7.08;48.57;101722.63;4986116;28;20042;-73
2022/11/27 10:38:03;;;;;;;7.05;4.05;;;;;;;7.08;48.23;101728.97;4993298;28;20042;-73
2022/11/27 10:40:38;;;;;;;6.88;4.05;;;;;;;7.11;48.50;101723.31;4986141;28;20046;-74
2022/11/27 10:43:13;;;;;;;12.88;7.40;;;;;;;7.12;48.56;101705.13;4992505;28;20117;-74
2022/11/27 10:45:48;;;;;;;9.75;6.10;;;;;;;7.14;48.11;101709.53;4982229;28;20057;-73
2022/11/27 10:48:17;;;;;;;8.18;5.28;;;;;;;7.15;48.35;101707.69;4988730;28;20084;-74
2022/11/27 10:50:45;;;;;;;7.57;5.05;;;;;;;7.17;48.38;101701.19;4964592;28;20054;-74
2022/11/27 10:53:19;;;;;;;7.43;4.88;;;;;;;7.19;48.35;101695.63;4984969;28;20082;-76
2022/11/27 10:56:01;;;;;;;8.65;4.22;;;;;;;7.20;47.54;101689.22;4988682;28;20528;-73
2022/11/27 10:58:33;;;;;;;7.93;4.70;;;;;;;7.20;48.40;101692.81;4988506;28;20499;-73
2022/11/27 11:01:05;;;;;;;8.23;4.07;;;;;;;7.21;48.45;101682.81;4988077;28;20049;-74
2022/11/27 11:03:34;;;;;;;8.30;4.87;;;;;;;7.22;48.14;101676.41;4987180;28;20112;-74
2022/11/27 11:06:05;;;;;;;11.50;5.22;;;;;;;7.25;48.37;101678.06;4997260;28;20370;-73
2022/11/27 11:08:49;;;;;;;7.15;4.78;;;;;;;7.24;48.34;101665.41;5004825;28;20121;-73
2022/11/27 11:11:26;;;;;;;8.02;4.40;;;;;;;7.27;47.70;101660.66;4987325;28;20045;-72
2022/11/27 11:13:54;;;;;;;6.07;4.00;;;;;;;7.26;48.08;101661.66;4985301;28;20058;-74
2022/11/27 11:16:26;;;;;;;6.78;3.70;;;;;;;7.30;47.82;101659.59;4991935;28;20494;-72
2022/11/27 11:19:01;;;;;;;7.78;4.40;;;;;;;7.29;48.29;101653.28;4978134;28;20561;-74
2022/11/27 11:21:32;;;;;;;8.05;4.40;;;;;;;7.31;47.77;101645.00;4980531;28;20046;-74
2022/11/27 11:24:03;;;;;;;7.17;3.80;;;;;;;7.30;48.25;101633.25;4977838;28;20046;-74
2022/11/27 11:26:34;;;;;;;7.20;3.83;;;;;;;7.33;47.98;101630.34;4995899;28;20340;-74
2022/11/27 11:29:06;;;;;;;7.28;4.22;;;;;;;7.34;48.09;101609.44;4988273;28;20057;-75
2022/11/27 11:31:38;;;;;;;6.85;4.40;;;;;;;7.36;47.63;101610.19;4997330;28;20060;-74
2022/11/27 11:34:18;;;;;;;7.57;4.60;;;;;;;7.34;47.51;101580.34;4973080;28;20525;-74
2022/11/27 11:36:58;;;;;;;7.95;4.38;;;;;;;7.31;47.28;101545.16;4986727;28;20338;-74
2022/11/27 11:39:29;;;;;;;8.00;4.05;;;;;;;7.32;47.90;101544.19;4979985;28;20062;-74
2022/11/27 11:41:57;;;;;;;6.65;4.05;;;;;;;7.30;47.83;101540.66;4993820;28;20721;-74
2022/11/27 11:44:32;;;;;;;7.63;4.10;;;;;;;7.35;47.60;101541.28;4986404;28;20121;-74
2022/11/27 11:47:01;;;;;;;5.65;3.63;;;;;;;7.35;47.82;101559.44;4987069;28;20096;-74
2022/11/27 11:49:31;;;;;;;6.47;3.63;;;;;;;7.35;48.17;101552.16;4986732;28;20042;-74